Terminal Aerodrome Forecast
Issued by NWS Quad Cities IA IL

Home | Current Version | Previous Version | Text Only | Print | Product List | Glossary On
Versions: 1 2 3 4 5 6 7 8 9 10 11 12 13 14 15 16 17 18 19 20 21 22 23
000
FTUS43 KDVN 261858 AAB
TAFDBQ
TAF AMD
KDBQ 261858Z 2619/2718 11007KT 2SM -RA BR OVC035
     FM262000 VRB04KT 6SM BR SCT030 OVC070
     FM270000 05004KT P6SM SCT070
     FM270900 VRB03KT 3SM BR SCT003 SCT100
     FM271400 14004KT 6SM BR BKN200=

USA.gov is the U.S. government's official web portal to all federal, state and local government web resources and services.